AWO weather

Arlington Municipal Airport
Arlington, Washington, United States

Public forecast

Using degrees Fahrenheit for public forecast. Weather courtesy of forecast.io.

Current aviation weather report (METAR) for Arlington Municipal Airport

Retrieved 2020/05/25 08:56 UTC (43 minutes ago):

KAWO 250856Z AUTO 00000KT 10SM OVC050 13/09 A3009 RMK AO2 SLP195 T01280094 58006

Closest aviation forecast (TAF) to Arlington Municipal Airport

Closest forecast is Snohomish County (Paine Field) Airport, 16.1 nm (29.7 km) SSW. Retrieved 2020/05/25 06:42 UTC (3 hours ago):

TAF KPAE 250539Z 2506/2606 VRB04KT P6SM OVC060 FM250900 16006KT P6SM OVC050 FM251100 17007KT P6SM -RA OVC025 FM251500 18009KT 4SM -RA BR OVC015 FM252300 19006KT 6SM -SHRA BR BKN018 OVC022